sensor_id;sensor_type;location;lat;lon;timestamp;pressure;altitude;pressure_sealevel;temperature;humidity
58979;BME280;44763;50.464;30.612;2022-07-09T00:01:51;100261.96;;;18.76;68.67
58979;BME280;44763;50.464;30.612;2022-07-09T00:04:17;100257.07;;;18.76;68.61
58979;BME280;44763;50.464;30.612;2022-07-09T00:06:43;100255.21;;;18.76;68.55
58979;BME280;44763;50.464;30.612;2022-07-09T00:09:09;100247.11;;;18.76;68.70
58979;BME280;44763;50.464;30.612;2022-07-09T00:11:35;100245.46;;;18.75;68.88
58979;BME280;44763;50.464;30.612;2022-07-09T00:14:02;100234.66;;;18.75;68.84
58979;BME280;44763;50.464;30.612;2022-07-09T00:16:29;100242.64;;;18.82;68.80
58979;BME280;44763;50.464;30.612;2022-07-09T00:18:55;100237.84;;;18.86;68.71
58979;BME280;44763;50.464;30.612;2022-07-09T00:21:22;100242.20;;;18.88;68.67
58979;BME280;44763;50.464;30.612;2022-07-09T00:23:48;100240.84;;;18.88;68.72
58979;BME280;44763;50.464;30.612;2022-07-09T00:26:14;100246.48;;;18.86;68.73
58979;BME280;44763;50.464;30.612;2022-07-09T00:28:41;100244.33;;;18.85;68.83
58979;BME280;44763;50.464;30.612;2022-07-09T00:31:10;100248.05;;;18.82;69.08
58979;BME280;44763;50.464;30.612;2022-07-09T00:33:37;100230.61;;;18.75;69.07
58979;BME280;44763;50.464;30.612;2022-07-09T00:36:03;100238.05;;;18.82;69.19
58979;BME280;44763;50.464;30.612;2022-07-09T00:38:29;100227.25;;;18.82;69.28
58979;BME280;44763;50.464;30.612;2022-07-09T00:40:55;100220.11;;;18.76;69.41
58979;BME280;44763;50.464;30.612;2022-07-09T00:43:22;100217.89;;;18.73;69.75
58979;BME280;44763;50.464;30.612;2022-07-09T00:45:49;100223.29;;;18.73;69.81
58979;BME280;44763;50.464;30.612;2022-07-09T00:48:15;100223.50;;;18.69;69.97
58979;BME280;44763;50.464;30.612;2022-07-09T00:50:43;100228.13;;;18.71;69.81
58979;BME280;44763;50.464;30.612;2022-07-09T00:53:12;100222.96;;;18.70;69.98
58979;BME280;44763;50.464;30.612;2022-07-09T00:55:40;100221.34;;;18.68;70.21
58979;BME280;44763;50.464;30.612;2022-07-09T00:58:07;100217.89;;;18.73;69.94
58979;BME280;44763;50.464;30.612;2022-07-09T01:00:35;100213.06;;;18.75;69.78
58979;BME280;44763;50.464;30.612;2022-07-09T01:03:02;100214.53;;;18.80;69.65
58979;BME280;44763;50.464;30.612;2022-07-09T01:05:29;100221.31;;;18.83;69.70
58979;BME280;44763;50.464;30.612;2022-07-09T01:07:57;100225.45;;;18.88;69.51
58979;BME280;44763;50.464;30.612;2022-07-09T01:10:23;100222.75;;;18.88;69.35
58979;BME280;44763;50.464;30.612;2022-07-09T01:12:50;100226.23;;;18.86;69.31
58979;BME280;44763;50.464;30.612;2022-07-09T01:15:16;100230.73;;;18.80;69.36
58979;BME280;44763;50.464;30.612;2022-07-09T01:17:42;100230.19;;;18.81;69.13
58979;BME280;44763;50.464;30.612;2022-07-09T01:20:09;100230.83;;;18.85;68.96
58979;BME280;44763;50.464;30.612;2022-07-09T01:22:37;100228.52;;;18.94;68.63
58979;BME280;44763;50.464;30.612;2022-07-09T01:25:05;100217.91;;;19.07;68.15
58979;BME280;44763;50.464;30.612;2022-07-09T01:27:36;100213.72;;;19.16;67.54
58979;BME280;44763;50.464;30.612;2022-07-09T01:30:04;100219.45;;;19.20;67.32
58979;BME280;44763;50.464;30.612;2022-07-09T01:32:31;100218.69;;;19.24;66.76
58979;BME280;44763;50.464;30.612;2022-07-09T01:34:57;100225.12;;;19.21;66.60
58979;BME280;44763;50.464;30.612;2022-07-09T01:37:23;100219.34;;;19.12;66.99
58979;BME280;44763;50.464;30.612;2022-07-09T01:39:49;100213.37;;;19.10;67.04
58979;BME280;44763;50.464;30.612;2022-07-09T01:42:19;100225.44;;;19.05;66.89
58979;BME280;44763;50.464;30.612;2022-07-09T01:44:47;100221.61;;;19.01;67.19
58979;BME280;44763;50.464;30.612;2022-07-09T01:47:16;100212.96;;;19.01;67.28
58979;BME280;44763;50.464;30.612;2022-07-09T01:49:42;100216.23;;;19.03;67.33
58979;BME280;44763;50.464;30.612;2022-07-09T01:52:09;100218.12;;;19.03;67.35
58979;BME280;44763;50.464;30.612;2022-07-09T01:54:35;100208.37;;;19.02;67.39
58979;BME280;44763;50.464;30.612;2022-07-09T01:57:02;100200.80;;;19.01;67.28
58979;BME280;44763;50.464;30.612;2022-07-09T01:59:29;100197.78;;;18.98;67.32
58979;BME280;44763;50.464;30.612;2022-07-09T02:01:54;100197.78;;;18.98;67.22
58979;BME280;44763;50.464;30.612;2022-07-09T02:04:20;100195.16;;;19.03;67.05
58979;BME280;44763;50.464;30.612;2022-07-09T02:06:48;100188.89;;;19.00;66.93
58979;BME280;44763;50.464;30.612;2022-07-09T02:09:14;100188.67;;;19.04;66.35
58979;BME280;44763;50.464;30.612;2022-07-09T02:11:42;100197.97;;;19.11;66.22
58979;BME280;44763;50.464;30.612;2022-07-09T02:14:08;100204.24;;;19.14;65.92
58979;BME280;44763;50.464;30.612;2022-07-09T02:16:35;100212.53;;;19.10;65.87
58979;BME280;44763;50.464;30.612;2022-07-09T02:19:02;100217.61;;;19.06;65.92
58979;BME280;44763;50.464;30.612;2022-07-09T02:21:28;100218.93;;;19.03;66.09
58979;BME280;44763;50.464;30.612;2022-07-09T02:23:54;100228.92;;;19.03;65.98
58979;BME280;44763;50.464;30.612;2022-07-09T02:26:22;100238.92;;;19.02;66.12
58979;BME280;44763;50.464;30.612;2022-07-09T02:28:48;100244.77;;;18.97;66.29
58979;BME280;44763;50.464;30.612;2022-07-09T02:31:14;100252.12;;;19.01;65.93
58979;BME280;44763;50.464;30.612;2022-07-09T02:33:42;100266.50;;;19.04;65.65
58979;BME280;44763;50.464;30.612;2022-07-09T02:36:08;100288.71;;;19.09;66.17
58979;BME280;44763;50.464;30.612;2022-07-09T02:38:34;100298.07;;;19.21;65.77
58979;BME280;44763;50.464;30.612;2022-07-09T02:41:01;100314.05;;;19.22;65.86
58979;BME280;44763;50.464;30.612;2022-07-09T02:43:27;100315.61;;;19.18;65.38
58979;BME280;44763;50.464;30.612;2022-07-09T02:45:53;100312.09;;;19.18;65.50
58979;BME280;44763;50.464;30.612;2022-07-09T02:48:26;100309.66;;;19.19;66.00
58979;BME280;44763;50.464;30.612;2022-07-09T02:50:51;100297.95;;;19.30;65.87
58979;BME280;44763;50.464;30.612;2022-07-09T02:53:19;100303.30;;;19.44;65.27
58979;BME280;44763;50.464;30.612;2022-07-09T02:55:45;100305.82;;;19.51;64.88
58979;BME280;44763;50.464;30.612;2022-07-09T02:58:12;100307.47;;;19.52;64.98
58979;BME280;44763;50.464;30.612;2022-07-09T03:00:39;100309.55;;;19.48;64.87
58979;BME280;44763;50.464;30.612;2022-07-09T03:03:06;100316.17;;;19.37;64.79
58979;BME280;44763;50.464;30.612;2022-07-09T03:05:34;100321.73;;;19.31;65.26
58979;BME280;44763;50.464;30.612;2022-07-09T03:08:02;100327.91;;;19.29;65.45
58979;BME280;44763;50.464;30.612;2022-07-09T03:10:29;100340.59;;;19.25;65.74
58979;BME280;44763;50.464;30.612;2022-07-09T03:12:56;100341.87;;;19.23;65.70
58979;BME280;44763;50.464;30.612;2022-07-09T03:15:22;100339.17;;;19.23;65.90
58979;BME280;44763;50.464;30.612;2022-07-09T03:17:49;100339.44;;;19.21;65.90
58979;BME280;44763;50.464;30.612;2022-07-09T03:20:15;100336.28;;;19.10;66.23
58979;BME280;44763;50.464;30.612;2022-07-09T03:22:43;100337.88;;;19.09;66.79
58979;BME280;44763;50.464;30.612;2022-07-09T03:25:09;100349.46;;;19.06;67.23
58979;BME280;44763;50.464;30.612;2022-07-09T03:27:36;100356.45;;;19.05;67.24
58979;BME280;44763;50.464;30.612;2022-07-09T03:30:03;100366.72;;;19.05;67.50
58979;BME280;44763;50.464;30.612;2022-07-09T03:32:30;100366.72;;;19.05;67.73
58979;BME280;44763;50.464;30.612;2022-07-09T03:34:57;100368.03;;;19.03;67.90
58979;BME280;44763;50.464;30.612;2022-07-09T03:37:22;100365.03;;;19.02;67.97
58979;BME280;44763;50.464;30.612;2022-07-09T03:39:49;100361.22;;;19.00;67.77
58979;BME280;44763;50.464;30.612;2022-07-09T03:42:15;100363.62;;;18.97;67.98
58979;BME280;44763;50.464;30.612;2022-07-09T03:44:41;100353.66;;;19.00;67.99
58979;BME280;44763;50.464;30.612;2022-07-09T03:47:07;100349.36;;;19.01;67.78
58979;BME280;44763;50.464;30.612;2022-07-09T03:49:33;100350.52;;;19.05;67.26
58979;BME280;44763;50.464;30.612;2022-07-09T03:52:00;100348.69;;;19.09;67.67
58979;BME280;44763;50.464;30.612;2022-07-09T03:54:26;100346.02;;;19.11;68.03
58979;BME280;44763;50.464;30.612;2022-07-09T03:56:52;100351.48;;;19.14;67.98
58979;BME280;44763;50.464;30.612;2022-07-09T03:59:18;100347.60;;;19.10;68.06
58979;BME280;44763;50.464;30.612;2022-07-09T04:01:44;100348.81;;;19.16;68.23
58979;BME280;44763;50.464;30.612;2022-07-09T04:04:10;100341.39;;;19.26;68.34
58979;BME280;44763;50.464;30.612;2022-07-09T04:06:37;100356.26;;;19.26;68.80
58979;BME280;44763;50.464;30.612;2022-07-09T04:10:42;100344.91;;;19.26;69.38
58979;BME280;44763;50.464;30.612;2022-07-09T04:13:09;100362.14;;;19.23;69.46
58979;BME280;44763;50.464;30.612;2022-07-09T04:15:35;100363.46;;;19.20;69.58
58979;BME280;44763;50.464;30.612;2022-07-09T04:18:02;100364.84;;;19.23;69.65
58979;BME280;44763;50.464;30.612;2022-07-09T04:20:28;100369.53;;;19.28;69.56
58979;BME280;44763;50.464;30.612;2022-07-09T04:22:54;100364.97;;;19.48;69.32
58979;BME280;44763;50.464;30.612;2022-07-09T04:25:20;100369.60;;;19.67;68.73
58979;BME280;44763;50.464;30.612;2022-07-09T04:27:47;100370.69;;;19.85;68.19
58979;BME280;44763;50.464;30.612;2022-07-09T04:30:14;100368.92;;;19.93;67.54
58979;BME280;44763;50.464;30.612;2022-07-09T04:32:42;100369.73;;;19.94;67.35
58979;BME280;44763;50.464;30.612;2022-07-09T04:35:08;100364.56;;;19.92;67.56
58979;BME280;44763;50.464;30.612;2022-07-09T04:37:35;100369.71;;;19.91;68.25
58979;BME280;44763;50.464;30.612;2022-07-09T04:40:01;100369.41;;;19.90;68.58
58979;BME280;44763;50.464;30.612;2022-07-09T04:42:28;100366.14;;;19.88;68.35
58979;BME280;44763;50.464;30.612;2022-07-09T04:44:54;100356.92;;;19.70;68.62
58979;BME280;44763;50.464;30.612;2022-07-09T04:47:20;100352.41;;;19.56;69.22
58979;BME280;44763;50.464;30.612;2022-07-09T04:49:46;100338.98;;;19.44;69.99
58979;BME280;44763;50.464;30.612;2022-07-09T04:52:12;100332.28;;;19.49;70.95
58979;BME280;44763;50.464;30.612;2022-07-09T04:54:41;100332.92;;;19.37;71.88
58979;BME280;44763;50.464;30.612;2022-07-09T04:57:07;100328.13;;;19.24;71.80
58979;BME280;44763;50.464;30.612;2022-07-09T04:59:33;100322.91;;;19.18;72.19
58979;BME280;44763;50.464;30.612;2022-07-09T05:01:59;100318.52;;;19.14;73.40
58979;BME280;44763;50.464;30.612;2022-07-09T05:04:26;100311.25;;;19.17;74.21
58979;BME280;44763;50.464;30.612;2022-07-09T05:06:52;100309.63;;;19.16;74.66
58979;BME280;44763;50.464;30.612;2022-07-09T05:09:20;100297.05;;;19.08;74.43
58979;BME280;44763;50.464;30.612;2022-07-09T05:11:46;100302.52;;;18.93;75.64
58979;BME280;44763;50.464;30.612;2022-07-09T05:14:13;100302.86;;;18.82;75.76
58979;BME280;44763;50.464;30.612;2022-07-09T05:16:39;100303.34;;;18.65;75.91
58979;BME280;44763;50.464;30.612;2022-07-09T05:19:08;100292.11;;;18.56;76.46
58979;BME280;44763;50.464;30.612;2022-07-09T05:21:33;100284.34;;;18.45;77.80
58979;BME280;44763;50.464;30.612;2022-07-09T05:23:59;100266.19;;;18.26;79.04
58979;BME280;44763;50.464;30.612;2022-07-09T05:26:28;100259.93;;;18.09;79.77
58979;BME280;44763;50.464;30.612;2022-07-09T05:28:56;100257.70;;;17.92;81.13
58979;BME280;44763;50.464;30.612;2022-07-09T05:31:22;100250.02;;;17.74;82.41
58979;BME280;44763;50.464;30.612;2022-07-09T05:33:48;100247.81;;;17.59;84.00
58979;BME280;44763;50.464;30.612;2022-07-09T05:36:14;100241.24;;;17.41;86.67
58979;BME280;44763;50.464;30.612;2022-07-09T05:38:40;100241.18;;;17.26;87.41
58979;BME280;44763;50.464;30.612;2022-07-09T05:41:06;100228.26;;;17.14;89.06
58979;BME280;44763;50.464;30.612;2022-07-09T05:43:33;100236.13;;;17.06;90.81
58979;BME280;44763;50.464;30.612;2022-07-09T05:45:59;100236.13;;;17.06;90.81
58979;BME280;44763;50.464;30.612;2022-07-09T05:48:25;100242.00;;;17.03;91.67
58979;BME280;44763;50.464;30.612;2022-07-09T05:50:52;100242.46;;;17.00;91.90
58979;BME280;44763;50.464;30.612;2022-07-09T05:53:18;100232.00;;;17.01;91.82
58979;BME280;44763;50.464;30.612;2022-07-09T05:55:44;100229.58;;;17.02;92.29
58979;BME280;44763;50.464;30.612;2022-07-09T05:58:12;100227.78;;;17.05;91.37
58979;BME280;44763;50.464;30.612;2022-07-09T06:00:39;100216.06;;;17.11;91.25
58979;BME280;44763;50.464;30.612;2022-07-09T06:03:05;100217.77;;;17.15;90.63
58979;BME280;44763;50.464;30.612;2022-07-09T06:05:31;100208.92;;;17.17;90.78
58979;BME280;44763;50.464;30.612;2022-07-09T06:07:57;100197.03;;;17.16;91.29
58979;BME280;44763;50.464;30.612;2022-07-09T06:10:23;100193.52;;;17.15;91.45
58979;BME280;44763;50.464;30.612;2022-07-09T06:12:51;100189.94;;;17.12;91.85
58979;BME280;44763;50.464;30.612;2022-07-09T06:15:18;100180.82;;;17.13;91.51
58979;BME280;44763;50.464;30.612;2022-07-09T06:17:44;100176.83;;;17.16;92.02
58979;BME280;44763;50.464;30.612;2022-07-09T06:20:11;100155.23;;;17.13;91.57
58979;BME280;44763;50.464;30.612;2022-07-09T06:22:37;100145.19;;;17.08;90.84
58979;BME280;44763;50.464;30.612;2022-07-09T06:25:05;100131.11;;;17.06;91.55
58979;BME280;44763;50.464;30.612;2022-07-09T06:27:34;100128.52;;;16.97;92.27
58979;BME280;44763;50.464;30.612;2022-07-09T06:30:01;100119.02;;;16.95;92.67
58979;BME280;44763;50.464;30.612;2022-07-09T06:32:28;100109.91;;;16.96;91.95
58979;BME280;44763;50.464;30.612;2022-07-09T06:34:56;100107.56;;;16.99;91.89
58979;BME280;44763;50.464;30.612;2022-07-09T06:37:22;100113.11;;;17.07;92.05
58979;BME280;44763;50.464;30.612;2022-07-09T06:39:48;100120.95;;;17.08;91.10
58979;BME280;44763;50.464;30.612;2022-07-09T06:42:17;100134.51;;;17.13;91.54
58979;BME280;44763;50.464;30.612;2022-07-09T06:44:45;100146.20;;;17.19;89.59
58979;BME280;44763;50.464;30.612;2022-07-09T06:47:13;100153.95;;;17.27;89.15
58979;BME280;44763;50.464;30.612;2022-07-09T06:49:39;100159.19;;;17.34;89.13
58979;BME280;44763;50.464;30.612;2022-07-09T06:52:06;100171.34;;;17.48;89.40
58979;BME280;44763;50.464;30.612;2022-07-09T06:54:35;100171.34;;;17.48;89.40
58979;BME280;44763;50.464;30.612;2022-07-09T06:57:03;100169.46;;;17.49;88.72
58979;BME280;44763;50.464;30.612;2022-07-09T06:59:30;100165.15;;;17.48;88.83
58979;BME280;44763;50.464;30.612;2022-07-09T07:01:56;100166.42;;;17.45;89.14
58979;BME280;44763;50.464;30.612;2022-07-09T07:04:22;100171.77;;;17.43;89.68
58979;BME280;44763;50.464;30.612;2022-07-09T07:06:49;100170.08;;;17.39;89.95
58979;BME280;44763;50.464;30.612;2022-07-09T07:09:15;100160.80;;;17.47;90.16
58979;BME280;44763;50.464;30.612;2022-07-09T07:11:48;100170.20;;;17.59;90.07
58979;BME280;44763;50.464;30.612;2022-07-09T07:14:15;100165.45;;;17.63;89.48
58979;BME280;44763;50.464;30.612;2022-07-09T07:16:43;100172.19;;;17.63;89.64
58979;BME280;44763;50.464;30.612;2022-07-09T07:19:10;100183.63;;;17.56;88.90
58979;BME280;44763;50.464;30.612;2022-07-09T07:21:38;100193.25;;;17.52;88.67
58979;BME280;44763;50.464;30.612;2022-07-09T07:24:05;100191.20;;;17.45;89.75
58979;BME280;44763;50.464;30.612;2022-07-09T07:26:32;100194.59;;;17.40;90.86
58979;BME280;44763;50.464;30.612;2022-07-09T07:28:59;100198.59;;;17.38;90.81
58979;BME280;44763;50.464;30.612;2022-07-09T07:31:30;100204.80;;;17.38;91.65
58979;BME280;44763;50.464;30.612;2022-07-09T07:34:00;100204.33;;;17.41;91.76
58979;BME280;44763;50.464;30.612;2022-07-09T07:36:26;100196.59;;;17.45;91.80
58979;BME280;44763;50.464;30.612;2022-07-09T07:38:53;100196.41;;;17.49;91.87
58979;BME280;44763;50.464;30.612;2022-07-09T07:41:19;100194.36;;;17.42;90.70
58979;BME280;44763;50.464;30.612;2022-07-09T07:43:47;100194.09;;;17.41;92.07
58979;BME280;44763;50.464;30.612;2022-07-09T07:46:14;100188.52;;;17.45;91.33
58979;BME280;44763;50.464;30.612;2022-07-09T07:48:40;100180.66;;;17.43;91.97
58979;BME280;44763;50.464;30.612;2022-07-09T07:51:10;100175.73;;;17.40;92.24
58979;BME280;44763;50.464;30.612;2022-07-09T07:53:37;100165.92;;;17.34;92.89
58979;BME280;44763;50.464;30.612;2022-07-09T07:56:04;100152.87;;;17.28;92.43
58979;BME280;44763;50.464;30.612;2022-07-09T07:58:32;100149.06;;;17.27;92.61
58979;BME280;44763;50.464;30.612;2022-07-09T08:00:59;100140.75;;;17.28;92.08
58979;BME280;44763;50.464;30.612;2022-07-09T08:03:25;100124.94;;;17.32;91.92
58979;BME280;44763;50.464;30.612;2022-07-09T08:05:52;100126.44;;;17.40;92.83
58979;BME280;44763;50.464;30.612;2022-07-09T08:08:18;100128.59;;;17.40;91.75
58979;BME280;44763;50.464;30.612;2022-07-09T08:10:46;100134.81;;;17.41;91.48
58979;BME280;44763;50.464;30.612;2022-07-09T08:13:16;100133.66;;;17.37;91.66
58979;BME280;44763;50.464;30.612;2022-07-09T08:15:44;100123.47;;;17.39;91.89
58979;BME280;44763;50.464;30.612;2022-07-09T08:18:11;100117.58;;;17.42;92.34
58979;BME280;44763;50.464;30.612;2022-07-09T08:20:40;100115.19;;;17.43;92.53
58979;BME280;44763;50.464;30.612;2022-07-09T08:23:07;100110.41;;;17.47;90.84
58979;BME280;44763;50.464;30.612;2022-07-09T08:25:35;100122.19;;;17.56;90.42
58979;BME280;44763;50.464;30.612;2022-07-09T08:28:01;100120.10;;;17.60;89.86
58979;BME280;44763;50.464;30.612;2022-07-09T08:30:28;100121.15;;;17.59;90.37
58979;BME280;44763;50.464;30.612;2022-07-09T08:32:54;100121.15;;;17.59;90.37
58979;BME280;44763;50.464;30.612;2022-07-09T08:35:20;100114.41;;;17.59;90.32
58979;BME280;44763;50.464;30.612;2022-07-09T08:37:47;100116.41;;;17.64;89.27
58979;BME280;44763;50.464;30.612;2022-07-09T08:40:14;100117.52;;;17.65;90.25
58979;BME280;44763;50.464;30.612;2022-07-09T08:42:40;100126.64;;;17.64;90.51
58979;BME280;44763;50.464;30.612;2022-07-09T08:45:10;100126.38;;;17.63;90.51
58979;BME280;44763;50.464;30.612;2022-07-09T08:47:42;100118.33;;;17.66;89.91
58979;BME280;44763;50.464;30.612;2022-07-09T08:50:08;100111.16;;;17.71;89.72
58979;BME280;44763;50.464;30.612;2022-07-09T08:52:40;100114.42;;;17.74;89.72
58979;BME280;44763;50.464;30.612;2022-07-09T08:55:08;100122.81;;;17.75;90.24
58979;BME280;44763;50.464;30.612;2022-07-09T08:57:35;100120.89;;;17.73;90.29
58979;BME280;44763;50.464;30.612;2022-07-09T09:00:01;100126.28;;;17.73;89.89
58979;BME280;44763;50.464;30.612;2022-07-09T09:02:34;100126.02;;;17.74;90.61
58979;BME280;44763;50.464;30.612;2022-07-09T09:05:12;100126.28;;;17.73;91.41
58979;BME280;44763;50.464;30.612;2022-07-09T09:07:39;100131.91;;;17.71;91.02
58979;BME280;44763;50.464;30.612;2022-07-09T09:10:05;100123.39;;;17.77;91.18
58979;BME280;44763;50.464;30.612;2022-07-09T09:12:34;100127.36;;;17.86;91.60
58979;BME280;44763;50.464;30.612;2022-07-09T09:15:05;100128.21;;;17.89;91.58
58979;BME280;44763;50.464;30.612;2022-07-09T09:17:32;100131.48;;;17.91;92.19
58979;BME280;44763;50.464;30.612;2022-07-09T09:19:59;100122.72;;;17.98;92.24
58979;BME280;44763;50.464;30.612;2022-07-09T09:22:26;100120.72;;;18.08;92.00
58979;BME280;44763;50.464;30.612;2022-07-09T09:24:52;100119.44;;;18.11;91.50
58979;BME280;44763;50.464;30.612;2022-07-09T09:27:28;100116.23;;;18.14;90.75
58979;BME280;44763;50.464;30.612;2022-07-09T09:30:00;100118.13;;;18.13;89.49
58979;BME280;44763;50.464;30.612;2022-07-09T09:32:26;100101.03;;;18.07;90.00
58979;BME280;44763;50.464;30.612;2022-07-09T09:34:52;100093.16;;;18.03;90.02
58979;BME280;44763;50.464;30.612;2022-07-09T09:37:25;100084.52;;;18.04;90.15
58979;BME280;44763;50.464;30.612;2022-07-09T09:39:52;100082.94;;;18.05;89.91
58979;BME280;44763;50.464;30.612;2022-07-09T09:42:19;100080.20;;;18.03;91.01
58979;BME280;44763;50.464;30.612;2022-07-09T09:44:47;100078.56;;;18.02;90.94
58979;BME280;44763;50.464;30.612;2022-07-09T09:47:20;100079.12;;;18.04;92.11
58979;BME280;44763;50.464;30.612;2022-07-09T09:49:48;100075.08;;;18.04;92.08
58979;BME280;44763;50.464;30.612;2022-07-09T09:52:19;100069.45;;;18.05;92.80
58979;BME280;44763;50.464;30.612;2022-07-09T09:54:47;100058.75;;;18.11;91.62
58979;BME280;44763;50.464;30.612;2022-07-09T09:57:16;100062.11;;;18.18;90.03
58979;BME280;44763;50.464;30.612;2022-07-09T09:59:43;100055.75;;;18.26;91.02
58979;BME280;44763;50.464;30.612;2022-07-09T10:02:13;100059.35;;;18.32;91.54
58979;BME280;44763;50.464;30.612;2022-07-09T10:04:43;100064.20;;;18.33;90.92
58979;BME280;44763;50.464;30.612;2022-07-09T10:07:12;100058.95;;;18.40;91.08
58979;BME280;44763;50.464;30.612;2022-07-09T10:09:39;100076.98;;;18.57;89.80
58979;BME280;44763;50.464;30.612;2022-07-09T10:12:08;100070.86;;;18.61;88.58
58979;BME280;44763;50.464;30.612;2022-07-09T10:14:37;100075.42;;;18.61;88.96
58979;BME280;44763;50.464;30.612;2022-07-09T10:20:03;100072.94;;;18.57;88.74
58979;BME280;44763;50.464;30.612;2022-07-09T10:22:37;100079.69;;;18.57;88.60
58979;BME280;44763;50.464;30.612;2022-07-09T10:25:07;100078.63;;;18.58;88.42
58979;BME280;44763;50.464;30.612;2022-07-09T10:27:44;100069.76;;;18.60;87.46
58979;BME280;44763;50.464;30.612;2022-07-09T10:30:31;100069.78;;;18.62;87.40
58979;BME280;44763;50.464;30.612;2022-07-09T10:33:06;100075.23;;;18.65;87.28
58979;BME280;44763;50.464;30.612;2022-07-09T10:35:47;100089.62;;;18.71;87.49
58979;BME280;44763;50.464;30.612;2022-07-09T10:38:17;100084.01;;;18.75;87.21
58979;BME280;44763;50.464;30.612;2022-07-09T10:40:47;100100.69;;;18.72;87.17
58979;BME280;44763;50.464;30.612;2022-07-09T10:43:16;100099.02;;;18.68;87.06
58979;BME280;44763;50.464;30.612;2022-07-09T10:45:44;100101.36;;;18.62;87.08
58979;BME280;44763;50.464;30.612;2022-07-09T10:48:13;100100.80;;;18.60;87.95
58979;BME280;44763;50.464;30.612;2022-07-09T10:50:45;100092.67;;;18.57;87.48
58979;BME280;44763;50.464;30.612;2022-07-09T10:53:14;100091.80;;;18.54;87.91
58979;BME280;44763;50.464;30.612;2022-07-09T10:55:44;100084.81;;;18.56;88.39
58979;BME280;44763;50.464;30.612;2022-07-09T10:58:20;100094.77;;;18.55;88.92
58979;BME280;44763;50.464;30.612;2022-07-09T11:00:55;100098.88;;;18.58;89.20
58979;BME280;44763;50.464;30.612;2022-07-09T11:03:28;100097.02;;;18.61;88.45
58979;BME280;44763;50.464;30.612;2022-07-09T11:05:56;100099.45;;;18.60;87.66
58979;BME280;44763;50.464;30.612;2022-07-09T11:08:24;100103.02;;;18.63;87.62
58979;BME280;44763;50.464;30.612;2022-07-09T11:10:51;100108.11;;;18.62;87.33
58979;BME280;44763;50.464;30.612;2022-07-09T11:13:22;100107.33;;;18.64;87.12
58979;BME280;44763;50.464;30.612;2022-07-09T11:16:01;100107.33;;;18.64;86.82
58979;BME280;44763;50.464;30.612;2022-07-09T11:18:28;100095.20;;;18.66;86.65
58979;BME280;44763;50.464;30.612;2022-07-09T11:20:55;100037.52;;;18.34;85.90
58979;BME280;44763;50.464;30.612;2022-07-09T11:23:21;100090.87;;;18.63;85.16
58979;BME280;44763;50.464;30.612;2022-07-09T11:25:47;100094.05;;;18.60;85.90
58979;BME280;44763;50.464;30.612;2022-07-09T11:28:21;100089.22;;;18.62;85.79
58979;BME280;44763;50.464;30.612;2022-07-09T11:33:27;100085.49;;;18.82;85.54
58979;BME280;44763;50.464;30.612;2022-07-09T11:35:53;100086.97;;;18.93;85.69
58979;BME280;44763;50.464;30.612;2022-07-09T11:38:19;100087.06;;;19.00;84.99
58979;BME280;44763;50.464;30.612;2022-07-09T11:40:45;100087.38;;;19.04;84.34
58979;BME280;44763;50.464;30.612;2022-07-09T11:43:15;100092.74;;;18.99;82.86
58979;BME280;44763;50.464;30.612;2022-07-09T11:45:52;100100.84;;;18.99;82.47
58979;BME280;44763;50.464;30.612;2022-07-09T11:48:18;100108.65;;;18.98;82.02
58979;BME280;44763;50.464;30.612;2022-07-09T11:50:45;100109.52;;;19.01;81.86
58979;BME280;44763;50.464;30.612;2022-07-09T11:53:24;100104.38;;;19.02;81.33
58979;BME280;44763;50.464;30.612;2022-07-09T11:56:01;100104.63;;;19.00;81.41
58979;BME280;44763;50.464;30.612;2022-07-09T11:58:31;100106.84;;;19.03;81.70
58979;BME280;44763;50.464;30.612;2022-07-09T12:00:57;100103.59;;;19.04;82.11
58979;BME280;44763;50.464;30.612;2022-07-09T12:03:28;100102.05;;;19.08;82.21
58979;BME280;44763;50.464;30.612;2022-07-09T12:05:55;100098.83;;;19.11;82.08
58979;BME280;44763;50.464;30.612;2022-07-09T12:08:28;100101.83;;;19.12;81.66
58979;BME280;44763;50.464;30.612;2022-07-09T12:10:57;100099.34;;;19.08;81.41
58979;BME280;44763;50.464;30.612;2022-07-09T12:13:25;100104.13;;;19.03;81.69
58979;BME280;44763;50.464;30.612;2022-07-09T12:15:51;100101.19;;;19.05;82.70
58979;BME280;44763;50.464;30.612;2022-07-09T12:18:18;100101.27;;;19.10;82.58
58979;BME280;44763;50.464;30.612;2022-07-09T12:20:44;100098.04;;;19.13;82.07
58979;BME280;44763;50.464;30.612;2022-07-09T12:23:11;100096.17;;;19.14;80.69
58979;BME280;44763;50.464;30.612;2022-07-09T12:25:39;100093.50;;;19.16;80.08
58979;BME280;44763;50.464;30.612;2022-07-09T12:28:06;100089.78;;;19.22;79.30
58979;BME280;44763;50.464;30.612;2022-07-09T12:30:34;100093.38;;;19.31;80.17
58979;BME280;44763;50.464;30.612;2022-07-09T12:33:00;100088.34;;;19.37;79.81
58979;BME280;44763;50.464;30.612;2022-07-09T12:35:27;100092.73;;;19.43;79.59
58979;BME280;44763;50.464;30.612;2022-07-09T12:37:53;100071.90;;;19.41;79.26
58979;BME280;44763;50.464;30.612;2022-07-09T12:40:21;100086.12;;;19.56;79.27
58979;BME280;44763;50.464;30.612;2022-07-09T12:42:50;100094.47;;;19.54;79.97
58979;BME280;44763;50.464;30.612;2022-07-09T12:45:16;100096.60;;;19.50;79.53
58979;BME280;44763;50.464;30.612;2022-07-09T12:47:42;100100.91;;;19.48;79.58
58979;BME280;44763;50.464;30.612;2022-07-09T12:50:08;100104.39;;;19.46;78.90